Yarmouth Port, MA

21:55 EDT le 19 septembre 2014 (GMT -0400)
Chatham Municipal | Change Station
CLOSE
Current Station
Aéroport
Location: Chatham,
Altitude: 66 ft
Stations météo à proximité

Alt. 66 ft 41.69 °N, 69.99 °W | Updated 1 hour ago

Ciel dégagé
Ciel dégagé
46 ° F
Paraît 46 ° F
N
0
Vent Variable Vent de Nord

Aujourd'hui
Haut(e) -- | Bas -- ° F
--% Risque de précip.
Hier
Haut(e) -- | Bas -- ° F
Precip. -- pouce
6:25 AM 6:43 PM
Lune descendante, 15% visible
Pression 30.45 pouce
Visibilité 10.0 Miles terrestres
Nuages Ciel dégagé
Point de rosée 37 ° F
Humidité 71%
Précipitations 0.00 pouce
Profondeur de la couche neigeuse Non disponible.
UV 0 sur 12
Pollen 3.40 sur 12
Qualité de l'air Non disponible.
Flu Activity Non disponible.
METAR KCQX 200052Z AUTO 00000KT 10SM CLR 08/03 A3045 RMK AO2 SLP311 T00780028

More Conditions Fewer Conditions

Pression 30.45 pouce
Visibilité 10.0 Miles terrestres
Nuages Ciel dégagé
Point de rosée 37 ° F
Humidité 71%
Précipitations 0.00 pouce
Profondeur de la couche neigeuse Non disponible.
UV 0 sur 12
Pollen 3.40 sur 12
Qualité de l'air Non disponible.
Flu Activity Non disponible.
METAR KCQX 200052Z AUTO 00000KT 10SM CLR 08/03 A3045 RMK AO2 SLP311 T00780028

More Conditions Fewer Conditions

10-Day Weather Forecast

Almanac

Astronomie

Sep. 19, 2014 Lever Coucher
Temps réel 06:25 EDT 18:43 EDT
Crépuscule civil 05:57 EDT 19:11 EDT
Crépuscule nautique 05:24 EDT 19:43 EDT
Crépuscule astronomique 04:51 EDT 20:17 EDT
Lune 02:04 EDT (9/19) 16:12 EDT (9/19)
Durée de lumière visible 13h 13m
Longueur du jour
12h 18m
Tomorrow will be 2m 46s shorter.
Lune descendante, 15% of the Moon is Illuminated
Aujourd'hui
Lune descendante
Sep 24
Nouveau
Oct 1
Premier quartier
Oct 8
Pleine lune
Oct 15
Dernier quartier

Extrêmes aujourd'hui

State Highs State Lows

Community

WunderPhotos

Upload Photos

1,754,760 Photos téléchargées !

WunderBlogs® & News

Nearby

Qualité de l'air

  Qualité de l'air Indice de la qualité de l'air Polluant
Hier Bon
OZONE
vendredi Bon
PM2.5
vendredi Bon
OZONE
samedi Bon
PM2.5
samedi Bon
OZONE

Épaisseur de neige

Station Depth Altitude
Pas de nouvelles chutes de neige

Activité sismique

Ville Distance Mag. Time & Date
No recent earthquake activity has been reported nearby.
Minimum magnitude displayed is 2.5.

Températures des eaux côtières

Lieu Température
Woods Hole, MA 68.0 ° F
Nantucket Island, MA 66.9 ° F
Boston, MA 63.0 ° F
Fall River, MA 70.0 ° F

Stations météo à proximité